Scroll down
FLIGHT INFORMATION
American Airlines

AAL2591

At Arrival Gate

KSAT
 KDFW
DATE: 2020-09-05
GATE:  -
GATE DEPARTURE: 14:26
TAKEOFF: 14:37
DATE: 2020-09-05
GATE:  -
LANDING: 15:26
GATE ARRIVAL: 15:36
FLIGHT DATA
Crew: 
Speed: 
433 kts
Altitude: 
27,001 ft
Stage Length: 
214.8 nm
Block Time: 
1.2 hrs
Flight Time: 
0.8 hrs
Fuel Used: 
5,526 lb
Cleared Route: KSAT SAT GOBBY GUTZZ EGADS FDUBB KIILO KYSSS BOOVE SHMPP CURLE MOWWW DELMO LREEE BEONE BOSSI RW17C
TRACK DATA
50,000 ft 1,000 kts
AIRCRAFT INFO AND CUMULATIVE STATS
Aircraft Type: 
B738BW
Registration: 
SELCAL: 
AFKM
MSN/LN: 
33317 / 4197
Operator: 
Total Flights: 
6
Total Block Time: 
9.4 hrs
Total Flight Time: 
7.5 hrs
Total Fuel Time: 
51,227 lb
DATALINK LOG | Newest first | Current as of: 2020-11-27 02:24:49
LABEL SEQUENCE CONTENT Dn/Up
QD501115:36 6.4▼ Dn
QC400315:26▼ Dn
5U5057KDFW 050759Z 14007KT 10SM BKN150 26/23 A3018▲ Up
2U5046KDFW 050353Z 13005KT 10SM BKN130 BKN250 26/23 A3018 RMK AO2 SLP213 T02560233▲ Up
5S0330KDFW▼ Dn
2S0330KDFW▼ Dn
QB511914:37▼ Dn
QA400814:26 12▼ Dn
Q03302[LINK ACK]▲ Up
Q03302[LINK TEST]▼ Dn


AIRCRAFT HISTORY
FLIGHT DATE FLIGHT NO. ORIGIN DESTINATION CLEARED ROUTE BLOCK TIME FLIGHT TIME FUEL USED PILOT
2020-10-03AAL2657KMCO KMIA KMCO MLB HILEY KAINS CIMBA JESSS RUBOE COPRA RW08R1.1 hrs0.7 hrs5,590 lbMichael Collier
2020-09-30AAL2815KMIA KMCO KMIA SENOY CIMBA FORKK VVMAX HEDLY PHK BAIRN NOBBS MICKX RAMEZ POPYE GLOSI RW17R1 hrs0.7 hrs5,143 lbMichael Collier
2020-09-11AAL911KDFW KMIA KDFW ZALEA SWB HRV FATSO REDFN BLVNS BUNNZ BACCA CIGAR GAWKS BAGGS KMIA2.9 hrs2.5 hrs16,508 lbCharles Harris
2020-09-05AAL2591KSAT KDFW KSAT SAT GOBBY GUTZZ EGADS FDUBB KIILO KYSSS BOOVE SHMPP CURLE MOWWW DELMO LREEE BEONE BOSSI RW17C1.2 hrs0.8 hrs5,526 lbMichael Collier
2020-08-28AAL2218KDFW KSAT KDFW TREXX DALBY ENIKE JASPA WINDU BLEWE CWK MARCS BRAUN TROOP CRISS JATAX HASDO RW13R1.1 hrs0.8 hrs5,705 lbMichael Collier
2020-08-02AAL393MMMX KDFW MMMX MUXEP XOSOK TAM URVOX AVUMO URVUT AGUAS LIBOX ONDEV REX MFE SAT GUTZZ KDFW2.5 hrs2.1 hrs12,756 lbMichael Roth